Time,TemperatureF,DewpointF,PressureIn,WindDirection,WindDirectionDegrees,WindSpeedMPH,WindSpeedGustMPH,Humidity,HourlyPrecipIn,Conditions,Clouds,dailyrainin,SoftwareType,DateUTC
2013-10-24 00:13:00,36.0,32.0,30.11,WNW,289,3.0,8.0,86,0.00,,,0.00,,2013-10-24 05:13:00,
2013-10-24 00:22:00,36.0,32.0,30.10,WNW,296,2.0,7.0,86,0.00,,,0.00,,2013-10-24 05:22:00,
2013-10-24 00:43:00,36.0,32.0,30.10,West,277,3.0,7.0,86,0.00,,,0.00,,2013-10-24 05:43:00,
2013-10-24 00:53:00,36.0,32.0,30.10,West,279,2.0,6.0,86,0.00,,,0.00,,2013-10-24 05:53:00,
2013-10-24 01:12:00,36.0,32.0,30.10,West,278,3.0,6.0,86,0.00,,,0.00,,2013-10-24 06:12:00,
2013-10-24 01:21:00,36.0,32.0,30.10,WNW,284,2.0,5.0,86,0.00,,,0.00,,2013-10-24 06:21:00,
2013-10-24 01:42:00,35.0,32.0,30.10,West,268,3.0,7.0,88,0.00,,,0.00,,2013-10-24 06:42:00,
2013-10-24 01:52:00,35.0,32.0,30.10,WSW,257,3.0,8.0,89,0.00,,,0.00,,2013-10-24 06:52:00,
2013-10-24 02:12:00,35.0,32.0,30.10,WSW,252,2.0,6.0,90,0.00,,,0.00,,2013-10-24 07:12:00,
2013-10-24 02:21:00,35.0,32.0,30.10,WSW,257,4.0,6.0,90,0.00,,,0.00,,2013-10-24 07:21:00,
2013-10-24 02:42:00,35.0,32.0,30.10,WSW,247,3.0,6.0,90,0.00,,,0.00,,2013-10-24 07:42:00,
2013-10-24 02:52:00,35.0,32.0,30.10,West,265,4.0,7.0,90,0.00,,,0.00,,2013-10-24 07:52:00,
2013-10-24 03:11:00,35.0,32.0,30.10,WSW,243,4.0,7.0,90,0.00,,,0.00,,2013-10-24 08:11:00,
2013-10-24 03:22:00,35.0,32.0,30.10,WNW,290,4.0,8.0,90,0.00,,,0.00,,2013-10-24 08:22:00,
2013-10-24 03:42:00,35.0,32.0,30.10,West,281,4.0,7.0,90,0.00,,,0.00,,2013-10-24 08:42:00,
2013-10-24 03:53:00,35.0,32.0,30.10,West,275,4.0,7.0,90,0.00,,,0.00,,2013-10-24 08:53:00,
2013-10-24 04:12:00,36.0,34.0,30.10,West,275,4.0,7.0,91,0.00,,,0.00,,2013-10-24 09:12:00,
2013-10-24 04:22:00,36.0,34.0,30.10,West,264,3.0,7.0,92,0.00,,,0.00,,2013-10-24 09:22:00,
2013-10-24 04:43:00,36.0,34.0,30.10,WNW,283,3.0,7.0,93,0.00,,,0.00,,2013-10-24 09:43:00,
2013-10-24 04:53:00,36.0,34.0,30.10,WNW,292,3.0,8.0,93,0.00,,,0.00,,2013-10-24 09:53:00,
2013-10-24 05:12:00,36.0,34.0,30.10,West,279,4.0,9.0,94,0.00,,,0.00,,2013-10-24 10:12:00,
2013-10-24 05:23:00,37.0,35.0,30.11,West,273,7.0,12.0,93,0.00,,,0.00,,2013-10-24 10:23:00,
2013-10-24 05:43:00,36.0,33.0,30.11,NW,309,11.0,19.0,87,0.00,,,0.00,,2013-10-24 10:43:00,
2013-10-24 05:52:00,36.0,30.0,30.12,WNW,294,6.0,13.0,78,0.00,,,0.00,,2013-10-24 10:52:00,
2013-10-24 06:12:00,36.0,29.0,30.12,NNW,346,4.0,11.0,77,0.00,,,0.00,,2013-10-24 11:12:00,
2013-10-24 06:22:00,36.0,29.0,30.13,WNW,298,6.0,12.0,74,0.00,,,0.00,,2013-10-24 11:22:00,
2013-10-24 06:42:00,36.0,28.0,30.13,West,279,7.0,15.0,72,0.00,,,0.00,,2013-10-24 11:42:00,
2013-10-24 06:52:00,35.0,28.0,30.14,NW,309,3.0,11.0,74,0.00,,,0.00,,2013-10-24 11:52:00,
2013-10-24 07:12:00,35.0,27.0,30.14,WNW,301,6.0,14.0,73,0.00,,,0.00,,2013-10-24 12:12:00,
2013-10-24 07:22:00,35.0,27.0,30.14,NW,304,5.0,11.0,72,0.00,,,0.00,,2013-10-24 12:22:00,
2013-10-24 07:42:00,35.0,26.0,30.15,WNW,293,5.0,13.0,70,0.00,,,0.00,,2013-10-24 12:42:00,
2013-10-24 07:52:00,35.0,27.0,30.15,WNW,289,5.0,11.0,72,0.00,,,0.00,,2013-10-24 12:52:00,
2013-10-24 08:12:00,35.0,26.0,30.16,NW,321,7.0,11.0,68,0.00,,,0.00,,2013-10-24 13:12:00,
2013-10-24 08:22:00,35.0,26.0,30.16,NW,321,7.0,11.0,68,0.00,,,0.00,,2013-10-24 13:22:00,
2013-10-24 08:32:00,35.0,26.0,30.16,NW,321,7.0,11.0,68,0.00,,,0.00,,2013-10-24 13:32:00,
2013-10-24 08:42:00,35.0,26.0,30.16,NW,321,7.0,11.0,68,0.00,,,0.00,,2013-10-24 13:42:00,
2013-10-24 11:23:00,37.0,28.0,30.23,NW,304,10.0,16.0,71,0.00,,,0.00,,2013-10-24 16:23:00,
2013-10-24 11:42:00,38.0,29.0,30.24,West,269,6.0,14.0,70,0.00,,,0.00,,2013-10-24 16:42:00,
2013-10-24 11:53:00,38.0,29.0,30.24,NNW,327,5.0,17.0,69,0.00,,,0.00,,2013-10-24 16:53:00,
2013-10-24 12:12:00,39.0,29.0,30.24,NW,322,7.0,15.0,67,0.00,,,0.00,,2013-10-24 17:12:00,
2013-10-24 12:22:00,38.0,29.0,30.25,NW,323,9.0,17.0,69,0.00,,,0.00,,2013-10-24 17:22:00,
2013-10-24 12:43:00,38.0,29.0,30.25,NW,321,9.0,15.0,70,0.00,,,0.00,,2013-10-24 17:43:00,
2013-10-24 12:52:00,38.0,29.0,30.25,NW,321,7.0,14.0,70,0.00,,,0.00,,2013-10-24 17:52:00,
2013-10-24 13:12:00,40.0,29.0,30.24,North,355,7.0,16.0,64,0.00,,,0.00,,2013-10-24 18:12:00,
2013-10-24 13:23:00,39.0,27.0,30.25,NW,311,9.0,16.0,62,0.00,,,0.00,,2013-10-24 18:23:00,
2013-10-24 13:42:00,38.0,27.0,30.25,NNW,328,7.0,15.0,63,0.00,,,0.00,,2013-10-24 18:42:00,
2013-10-24 13:53:00,39.0,27.0,30.25,NW,314,9.0,17.0,61,0.00,,,0.00,,2013-10-24 18:53:00,
2013-10-24 14:11:00,39.0,27.0,30.25,NW,313,6.0,13.0,61,0.00,,,0.00,,2013-10-24 19:11:00,
2013-10-24 14:22:00,40.0,25.0,30.25,NNW,333,6.0,12.0,55,0.00,,,0.00,,2013-10-24 19:22:00,
2013-10-24 14:43:00,40.0,27.0,30.26,WNW,301,7.0,15.0,60,0.00,,,0.00,,2013-10-24 19:43:00,
2013-10-24 14:53:00,40.0,27.0,30.26,WNW,288,7.0,13.0,59,0.00,,,0.00,,2013-10-24 19:53:00,
2013-10-24 15:11:00,40.0,26.0,30.26,NW,318,7.0,12.0,57,0.00,,,0.00,,2013-10-24 20:11:00,
2013-10-24 15:23:00,40.0,26.0,30.27,NNW,330,9.0,15.0,57,0.00,,,0.00,,2013-10-24 20:23:00,
2013-10-24 15:42:00,40.0,26.0,30.27,NNW,328,6.0,13.0,58,0.00,,,0.00,,2013-10-24 20:42:00,
2013-10-24 15:53:00,41.0,25.0,30.27,West,274,7.0,13.0,53,0.00,,,0.00,,2013-10-24 20:53:00,
2013-10-24 16:12:00,42.0,26.0,30.27,NW,313,7.0,15.0,53,0.00,,,0.00,,2013-10-24 21:12:00,
2013-10-24 16:22:00,42.0,27.0,30.27,NNW,341,6.0,12.0,54,0.00,,,0.00,,2013-10-24 21:22:00,
2013-10-24 16:43:00,42.0,26.0,30.27,NW,321,6.0,17.0,52,0.00,,,0.00,,2013-10-24 21:43:00,
2013-10-24 16:54:00,42.0,26.0,30.28,NNW,331,9.0,15.0,52,0.00,,,0.00,,2013-10-24 21:54:00,
2013-10-24 17:13:00,41.0,25.0,30.28,NW,317,7.0,16.0,53,0.00,,,0.00,,2013-10-24 22:13:00,
2013-10-24 17:24:00,40.0,25.0,30.29,WNW,288,5.0,15.0,55,0.00,,,0.00,,2013-10-24 22:24:00,
2013-10-24 17:43:00,39.0,25.0,30.29,West,261,8.0,15.0,58,0.00,,,0.00,,2013-10-24 22:43:00,
2013-10-24 17:54:00,39.0,26.0,30.30,WNW,298,7.0,16.0,59,0.00,,,0.00,,2013-10-24 22:54:00,
2013-10-24 18:13:00,38.0,25.0,30.31,WNW,300,6.0,14.0,60,0.00,,,0.00,,2013-10-24 23:13:00,
2013-10-24 18:22:00,38.0,25.0,30.32,NNW,329,7.0,18.0,60,0.00,,,0.00,,2013-10-24 23:22:00,
2013-10-24 18:43:00,37.0,24.0,30.33,NW,314,9.0,15.0,60,0.00,,,0.00,,2013-10-24 23:43:00,
2013-10-24 18:53:00,37.0,24.0,30.33,NW,304,9.0,14.0,60,0.00,,,0.00,,2013-10-24 23:53:00,
2013-10-24 19:12:00,37.0,25.0,30.34,NNW,328,4.0,10.0,61,0.00,,,0.00,,2013-10-25 00:12:00,
2013-10-24 19:22:00,37.0,25.0,30.34,NW,306,4.0,8.0,62,0.00,,,0.00,,2013-10-25 00:22:00,
2013-10-24 19:42:00,37.0,26.0,30.35,NW,305,2.0,5.0,64,0.00,,,0.00,,2013-10-25 00:42:00,
2013-10-24 19:52:00,37.0,26.0,30.35,NW,304,2.0,5.0,65,0.00,,,0.00,,2013-10-25 00:52:00,
2013-10-24 20:11:00,37.0,27.0,30.35,NW,319,2.0,5.0,66,0.00,,,0.00,,2013-10-25 01:11:00,
2013-10-24 20:21:00,36.0,26.0,30.35,NW,316,1.0,4.0,68,0.00,,,0.00,,2013-10-25 01:21:00,
2013-10-24 20:43:00,36.0,26.0,30.35,WNW,284,2.0,5.0,68,0.00,,,0.00,,2013-10-25 01:43:00,
2013-10-24 20:53:00,36.0,26.0,30.35,West,267,3.0,7.0,68,0.00,,,0.00,,2013-10-25 01:53:00,
2013-10-24 21:12:00,36.0,26.0,30.36,West,276,3.0,6.0,68,0.00,,,0.00,,2013-10-25 02:12:00,
2013-10-24 21:23:00,36.0,27.0,30.36,West,280,2.0,5.0,69,0.00,,,0.00,,2013-10-25 02:23:00,
2013-10-24 21:42:00,36.0,28.0,30.36,WNW,289,3.0,6.0,71,0.00,,,0.00,,2013-10-25 02:42:00,
2013-10-24 21:52:00,36.0,28.0,30.36,West,278,3.0,6.0,72,0.00,,,0.00,,2013-10-25 02:52:00,
2013-10-24 22:12:00,36.0,28.0,30.37,WNW,299,2.0,6.0,72,0.00,,,0.00,,2013-10-25 03:12:00,
2013-10-24 22:23:00,35.0,27.0,30.37,NW,304,1.0,4.0,73,0.00,,,0.00,,2013-10-25 03:23:00,
2013-10-24 22:44:00,34.0,27.0,30.37,NW,304,2.0,4.0,74,0.00,,,0.00,,2013-10-25 03:44:00,
2013-10-24 22:54:00,34.0,27.0,30.37,WNW,298,1.0,4.0,75,0.00,,,0.00,,2013-10-25 03:54:00,
2013-10-24 23:00:00,33.0,26.0,30.37,WNW,298,1.0,3.0,76,0.00,,,0.00,,2013-10-25 04:00:00,
2013-10-24 23:14:00,34.0,27.0,30.37,WNW,298,0.0,4.0,75,0.00,,,0.00,,2013-10-25 04:14:00,
2013-10-24 23:24:00,33.0,26.0,30.37,WNW,298,1.0,3.0,76,0.00,,,0.00,,2013-10-25 04:24:00,
2013-10-24 23:34:00,33.0,26.0,30.37,WNW,298,1.0,3.0,76,0.00,,,0.00,,2013-10-25 04:34:00,
2013-10-24 23:44:00,33.0,26.0,30.37,WNW,298,1.0,3.0,76,0.00,,,0.00,,2013-10-25 04:44:00,
2013-10-24 23:54:00,33.0,26.0,30.37,WNW,298,1.0,3.0,76,0.00,,,0.00,,2013-10-25 04:54:00,